Time;durP1;ratioP1;P1;durP2;ratioP2;P2;SDS_P1;SDS_P2;PMS_P1;PMS_P2;Temp;Humidity;BMP_temperature;BMP_pressure;BME280_temperature;BME280_humidity;BME280_pressure;Samples;Min_cycle;Max_cycle;Signal;HPM_P1;HPM_P2
2020/12/03 00:02:05;;;;;;;54.10;31.37;;;;;;;;;;5115050;28;20716;-74
2020/12/03 00:04:33;;;;;;;52.90;26.30;;;;;;;;;;5115698;28;20852;-74
2020/12/03 00:07:03;;;;;;;61.40;31.97;;;;;;;;;;5116340;28;20447;-74
2020/12/03 00:09:32;;;;;;;59.70;31.87;;;;;;;;;;5116371;28;20457;-74
2020/12/03 00:12:00;;;;;;;56.73;32.70;;;;;;;;;;5114117;28;20455;-74
2020/12/03 00:14:28;;;;;;;58.13;33.30;;;;;;;;;;5116020;28;20836;-74
2020/12/03 00:16:55;;;;;;;58.93;32.03;;;;;;;;;;5120135;28;20443;-74
2020/12/03 00:19:24;;;;;;;56.00;32.63;;;;;;;;;;5118979;28;20458;-74
2020/12/03 00:21:53;;;;;;;55.63;31.37;;;;;;;;;;5119162;28;20749;-74
2020/12/03 00:24:21;;;;;;;51.77;33.33;;;;;;;;;;5119694;28;20948;-74
2020/12/03 00:26:51;;;;;;;50.83;31.40;;;;;;;;;;5119431;28;20479;-74
2020/12/03 00:29:19;;;;;;;57.60;32.53;;;;;;;;;;5118825;27;20455;-74
2020/12/03 00:31:46;;;;;;;60.20;34.30;;;;;;;;;;5119509;28;20447;-73
2020/12/03 00:34:15;;;;;;;59.13;33.40;;;;;;;;;;5119043;28;20890;-74
2020/12/03 00:36:42;;;;;;;63.73;37.17;;;;;;;;;;5119029;28;20465;-74
2020/12/03 00:39:12;;;;;;;48.70;30.30;;;;;;;;;;5119361;28;20498;-74
2020/12/03 00:41:39;;;;;;;56.93;32.13;;;;;;;;;;5119291;28;20451;-74
2020/12/03 00:44:08;;;;;;;61.00;33.67;;;;;;;;;;5119390;28;20451;-74
2020/12/03 00:46:36;;;;;;;61.13;32.30;;;;;;;;;;5118904;28;20454;-72
2020/12/03 00:49:04;;;;;;;53.87;29.37;;;;;;;;;;5118388;28;20740;-73
2020/12/03 00:51:33;;;;;;;57.67;32.80;;;;;;;;;;5119133;28;20851;-73
2020/12/03 00:54:01;;;;;;;65.70;34.60;;;;;;;;;;5118639;28;20772;-74
2020/12/03 00:56:29;;;;;;;53.87;29.47;;;;;;;;;;5119091;28;20875;-73
2020/12/03 00:58:57;;;;;;;60.50;34.58;;;;;;;;;;5118882;28;20462;-74
2020/12/03 01:01:25;;;;;;;57.53;30.43;;;;;;;;;;5118103;28;20540;-72
2020/12/03 01:03:53;;;;;;;59.00;34.90;;;;;;;;;;5118268;28;20460;-74
2020/12/03 01:06:21;;;;;;;58.93;35.10;;;;;;;;;;5118928;28;20455;-75
2020/12/03 01:08:49;;;;;;;65.97;34.83;;;;;;;;;;5118738;28;20451;-74
2020/12/03 01:11:20;;;;;;;59.37;34.43;;;;;;;;;;5119476;28;20717;-74
2020/12/03 01:13:48;;;;;;;54.03;31.83;;;;;;;;;;5118879;28;20455;-74
2020/12/03 01:16:18;;;;;;;58.87;32.50;;;;;;;;;;5119074;28;20618;-74
2020/12/03 01:18:46;;;;;;;60.00;32.47;;;;;;;;;;5118619;28;20455;-73
2020/12/03 01:21:14;;;;;;;59.30;34.00;;;;;;;;;;5118889;28;20779;-73
2020/12/03 01:23:42;;;;;;;56.33;33.47;;;;;;;;;;5117796;28;20491;-74
2020/12/03 01:26:09;;;;;;;67.60;34.97;;;;;;;;;;5117888;28;20442;-72
2020/12/03 01:28:36;;;;;;;57.13;33.07;;;;;;;;;;5117868;28;20448;-74
2020/12/03 01:31:04;;;;;;;58.13;31.90;;;;;;;;;;5118146;28;20447;-74
2020/12/03 01:33:35;;;;;;;60.07;35.33;;;;;;;;;;5117797;28;20459;-74
2020/12/03 01:36:03;;;;;;;55.03;33.53;;;;;;;;;;5117936;28;20548;-74
2020/12/03 01:38:31;;;;;;;60.80;32.83;;;;;;;;;;5118424;28;20471;-74
2020/12/03 01:40:58;;;;;;;55.60;32.73;;;;;;;;;;5118616;28;20706;-74
2020/12/03 01:43:26;;;;;;;63.77;35.50;;;;;;;;;;5118572;28;20907;-74
2020/12/03 01:45:55;;;;;;;56.67;32.37;;;;;;;;;;5118098;28;20451;-74
2020/12/03 01:48:30;;;;;;;50.00;33.13;;;;;;;;;;5106820;28;20447;-74
2020/12/03 01:50:58;;;;;;;59.93;33.50;;;;;;;;;;5097724;28;20558;-74
2020/12/03 01:53:27;;;;;;;50.97;32.10;;;;;;;;;;5115302;28;20448;-74
2020/12/03 01:55:55;;;;;;;49.97;31.33;;;;;;;;;;5117262;28;20782;-73
2020/12/03 01:58:36;;;;;;;49.23;29.77;;;;;;;;;;5118015;28;20458;-74
2020/12/03 02:01:04;;;;;;;51.20;32.27;;;;;;;;;;5117444;28;20451;-74
2020/12/03 02:03:32;;;;;;;49.53;30.50;;;;;;;;;;5117542;28;20440;-74
2020/12/03 02:06:00;;;;;;;52.83;33.30;;;;;;;;;;5098148;28;20458;-74
2020/12/03 02:08:28;;;;;;;54.10;30.77;;;;;;;;;;5100874;28;20445;-74
2020/12/03 02:10:56;;;;;;;56.23;30.40;;;;;;;;;;5098711;28;20475;-73
2020/12/03 02:13:23;;;;;;;51.97;30.77;;;;;;;;;;5115029;28;20462;-74
2020/12/03 02:15:53;;;;;;;58.27;31.57;;;;;;;;;;5117596;28;20489;-74
2020/12/03 02:18:21;;;;;;;51.63;29.17;;;;;;;;;;5117589;28;20480;-73
2020/12/03 02:20:49;;;;;;;49.93;29.60;;;;;;;;;;5117483;28;20871;-75
2020/12/03 02:23:17;;;;;;;51.67;29.70;;;;;;;;;;5117620;28;20550;-74
2020/12/03 02:25:44;;;;;;;49.07;28.43;;;;;;;;;;5117477;28;20443;-74
2020/12/03 02:28:12;;;;;;;54.20;31.53;;;;;;;;;;5117285;28;20961;-75
2020/12/03 02:30:39;;;;;;;47.70;29.47;;;;;;;;;;5117091;28;20462;-74
2020/12/03 02:33:08;;;;;;;47.10;28.27;;;;;;;;;;5117436;28;20867;-74
2020/12/03 02:35:36;;;;;;;55.27;32.40;;;;;;;;;;5117624;28;20482;-73
2020/12/03 02:38:04;;;;;;;49.23;29.73;;;;;;;;;;5117218;28;20478;-74
2020/12/03 02:40:32;;;;;;;51.73;31.37;;;;;;;;;;5117034;28;20524;-75
2020/12/03 02:42:59;;;;;;;53.10;31.00;;;;;;;;;;5117489;28;20725;-75
2020/12/03 02:45:27;;;;;;;46.50;27.93;;;;;;;;;;5116989;28;20512;-74
2020/12/03 02:47:55;;;;;;;46.97;29.47;;;;;;;;;;5117609;28;20794;-74
2020/12/03 02:50:22;;;;;;;55.97;30.20;;;;;;;;;;5117205;28;21066;-74
2020/12/03 02:52:50;;;;;;;53.50;30.93;;;;;;;;;;5117401;28;20452;-74
2020/12/03 02:55:18;;;;;;;54.60;30.47;;;;;;;;;;5117366;28;20486;-74
2020/12/03 02:57:45;;;;;;;62.73;32.97;;;;;;;;;;5117520;28;20493;-74
2020/12/03 03:00:13;;;;;;;49.60;28.70;;;;;;;;;;5117518;28;20451;-74
2020/12/03 03:02:46;;;;;;;49.13;28.47;;;;;;;;;;5112540;28;20464;-73
2020/12/03 03:05:14;;;;;;;54.93;30.23;;;;;;;;;;5097110;28;20440;-75
2020/12/03 03:07:45;;;;;;;53.43;30.63;;;;;;;;;;5116894;28;20482;-73
2020/12/03 03:10:14;;;;;;;50.47;29.03;;;;;;;;;;5117152;28;20736;-74
2020/12/03 03:12:53;;;;;;;47.77;29.03;;;;;;;;;;5117402;28;20479;-74
2020/12/03 03:15:21;;;;;;;43.70;25.77;;;;;;;;;;5117075;28;20487;-74
2020/12/03 03:17:49;;;;;;;47.80;27.90;;;;;;;;;;5117663;28;20883;-74
2020/12/03 03:20:24;;;;;;;48.47;28.87;;;;;;;;;;5117440;28;20447;-74
2020/12/03 03:22:53;;;;;;;50.70;29.07;;;;;;;;;;5117607;28;20866;-74
2020/12/03 03:25:21;;;;;;;47.67;29.53;;;;;;;;;;5116798;28;20448;-74
2020/12/03 03:27:51;;;;;;;55.30;30.03;;;;;;;;;;5117427;28;20447;-74
2020/12/03 03:30:22;;;;;;;46.07;28.00;;;;;;;;;;5116135;28;20440;-74
2020/12/03 03:32:51;;;;;;;53.07;30.10;;;;;;;;;;5117045;28;20856;-74
2020/12/03 03:35:21;;;;;;;50.63;28.90;;;;;;;;;;5117020;28;20517;-74
2020/12/03 03:37:53;;;;;;;46.23;26.50;;;;;;;;;;5117810;28;20447;-74
2020/12/03 03:40:20;;;;;;;49.87;27.70;;;;;;;;;;5118687;28;20443;-74
2020/12/03 03:42:47;;;;;;;55.37;29.20;;;;;;;;;;5117605;28;20458;-74
2020/12/03 03:45:16;;;;;;;48.00;26.60;;;;;;;;;;5118197;28;20443;-75
2020/12/03 03:47:49;;;;;;;51.07;27.90;;;;;;;;;;5117306;28;20456;-75
2020/12/03 03:50:16;;;;;;;50.70;28.17;;;;;;;;;;5099322;28;20495;-75
2020/12/03 03:52:46;;;;;;;46.33;28.10;;;;;;;;;;5120770;28;20511;-75
2020/12/03 03:55:14;;;;;;;45.30;25.10;;;;;;;;;;5121321;27;20486;-74
2020/12/03 03:57:41;;;;;;;48.27;28.63;;;;;;;;;;5120361;28;20486;-74
2020/12/03 04:00:09;;;;;;;45.17;25.50;;;;;;;;;;5120446;28;20454;-74
2020/12/03 04:02:39;;;;;;;47.90;28.70;;;;;;;;;;5120037;27;20451;-75
2020/12/03 04:05:06;;;;;;;42.27;24.70;;;;;;;;;;5119997;28;20450;-74
2020/12/03 04:07:33;;;;;;;48.83;28.83;;;;;;;;;;5120030;28;20490;-74
2020/12/03 04:10:01;;;;;;;45.70;28.07;;;;;;;;;;5120209;27;20516;-74
2020/12/03 04:12:28;;;;;;;55.93;29.77;;;;;;;;;;5120408;28;20470;-74
2020/12/03 04:15:00;;;;;;;45.57;26.17;;;;;;;;;;5120511;28;20489;-74
2020/12/03 04:17:27;;;;;;;47.83;27.93;;;;;;;;;;5120574;28;20873;-74
2020/12/03 04:19:56;;;;;;;53.53;29.77;;;;;;;;;;5120297;28;20511;-74
2020/12/03 04:22:23;;;;;;;51.10;28.47;;;;;;;;;;5121215;28;20458;-74
2020/12/03 04:24:53;;;;;;;46.87;28.97;;;;;;;;;;5121063;28;20443;-74
2020/12/03 04:30:02;;;;;;;50.03;27.50;;;;;;;;;;5117966;28;20462;-74
2020/12/03 04:32:32;;;;;;;45.23;25.50;;;;;;;;;;5116033;28;20456;-74
2020/12/03 04:35:02;;;;;;;54.83;28.40;;;;;;;;;;5117029;28;20903;-74
2020/12/03 04:37:29;;;;;;;41.17;26.00;;;;;;;;;;5119665;28;20543;-74
2020/12/03 04:39:56;;;;;;;49.73;28.47;;;;;;;;;;5118628;28;20451;-74
2020/12/03 04:42:24;;;;;;;43.10;25.33;;;;;;;;;;5119280;28;20509;-75
2020/12/03 04:44:53;;;;;;;48.63;28.10;;;;;;;;;;5119497;28;20513;-74
2020/12/03 04:47:38;;;;;;;44.83;25.20;;;;;;;;;;5111753;28;20464;-73
2020/12/03 04:50:12;;;;;;;45.47;28.27;;;;;;;;;;5119261;28;20520;-75
2020/12/03 04:52:50;;;;;;;45.30;26.17;;;;;;;;;;5116996;28;20769;-75
2020/12/03 04:55:19;;;;;;;46.10;26.70;;;;;;;;;;5118309;28;20766;-74
2020/12/03 04:57:54;;;;;;;52.20;29.10;;;;;;;;;;5118553;27;20582;-74
2020/12/03 05:00:26;;;;;;;43.00;24.30;;;;;;;;;;5117899;28;20458;-73
2020/12/03 05:03:11;;;;;;;43.63;25.10;;;;;;;;;;5118178;28;20479;-74
2020/12/03 05:05:41;;;;;;;41.60;26.30;;;;;;;;;;5118382;28;20475;-74
2020/12/03 05:08:09;;;;;;;50.10;27.60;;;;;;;;;;5119123;28;20443;-74
2020/12/03 05:10:40;;;;;;;40.23;24.40;;;;;;;;;;5118419;28;20447;-74
2020/12/03 05:13:14;;;;;;;45.93;28.83;;;;;;;;;;5118773;28;20486;-74
2020/12/03 05:15:41;;;;;;;48.60;27.47;;;;;;;;;;5118463;28;20494;-74
2020/12/03 05:18:18;;;;;;;40.00;25.30;;;;;;;;;;5118924;28;20785;-74
2020/12/03 05:20:50;;;;;;;42.80;25.57;;;;;;;;;;5118336;28;21162;-74
2020/12/03 05:23:18;;;;;;;48.40;28.10;;;;;;;;;;5107768;28;20443;-74
2020/12/03 05:25:46;;;;;;;49.87;26.20;;;;;;;;;;5118299;28;20463;-74
2020/12/03 05:28:29;;;;;;;42.50;24.43;;;;;;;;;;5117786;28;20481;-74
2020/12/03 05:30:59;;;;;;;44.10;25.00;;;;;;;;;;5116789;28;20491;-74
2020/12/03 05:33:26;;;;;;;47.27;25.50;;;;;;;;;;5118186;28;20825;-74
2020/12/03 05:35:54;;;;;;;44.93;24.40;;;;;;;;;;5117993;28;20552;-74
2020/12/03 05:38:22;;;;;;;44.17;26.93;;;;;;;;;;5117336;28;20512;-75
2020/12/03 05:40:55;;;;;;;40.60;24.77;;;;;;;;;;5117491;28;20467;-74
2020/12/03 05:43:22;;;;;;;46.30;26.80;;;;;;;;;;5117483;28;20447;-74
2020/12/03 05:45:51;;;;;;;42.17;24.70;;;;;;;;;;5117132;28;20461;-74
2020/12/03 05:48:21;;;;;;;44.53;23.70;;;;;;;;;;5105531;28;20542;-74
2020/12/03 05:50:52;;;;;;;48.93;28.80;;;;;;;;;;5115054;28;20475;-73
2020/12/03 05:53:26;;;;;;;38.30;24.00;;;;;;;;;;5113226;28;21089;-74
2020/12/03 05:56:14;;;;;;;41.17;23.17;;;;;;;;;;5104606;28;20580;-74
2020/12/03 05:58:46;;;;;;;43.00;25.50;;;;;;;;;;5097054;28;20456;-74
2020/12/03 06:01:18;;;;;;;39.60;24.83;;;;;;;;;;5103862;28;20491;-74
2020/12/03 06:03:55;;;;;;;45.63;24.33;;;;;;;;;;5116398;28;20444;-74
2020/12/03 06:06:47;;;;;;;37.70;23.40;;;;;;;;;;5115946;28;20453;-74
2020/12/03 06:09:23;;;;;;;46.47;23.43;;;;;;;;;;5106783;28;20467;-74
2020/12/03 06:11:54;;;;;;;41.50;24.07;;;;;;;;;;5110587;28;20886;-74
2020/12/03 06:14:42;;;;;;;44.07;24.20;;;;;;;;;;5106559;28;20939;-74
2020/12/03 06:17:16;;;;;;;47.53;26.90;;;;;;;;;;5115400;28;20830;-74
2020/12/03 06:19:50;;;;;;;50.43;23.67;;;;;;;;;;5115625;28;21020;-74
2020/12/03 06:22:26;;;;;;;48.77;27.97;;;;;;;;;;5115848;28;20474;-74
2020/12/03 06:25:03;;;;;;;40.07;25.40;;;;;;;;;;5114978;28;20450;-74
2020/12/03 06:27:44;;;;;;;47.47;27.80;;;;;;;;;;5099762;28;20500;-74
2020/12/03 06:30:18;;;;;;;43.73;26.67;;;;;;;;;;5101063;28;20440;-74
2020/12/03 06:33:02;;;;;;;46.13;25.47;;;;;;;;;;5114999;28;20453;-74
2020/12/03 06:35:35;;;;;;;40.27;22.47;;;;;;;;;;5115023;28;20543;-74
2020/12/03 06:38:13;;;;;;;44.87;25.77;;;;;;;;;;5115041;28;20847;-74
2020/12/03 06:40:43;;;;;;;47.37;25.07;;;;;;;;;;5115140;28;20461;-74
2020/12/03 06:43:13;;;;;;;44.03;21.93;;;;;;;;;;5115093;28;20475;-74
2020/12/03 06:45:44;;;;;;;49.53;27.37;;;;;;;;;;5114799;28;20443;-74
2020/12/03 06:48:27;;;;;;;41.57;24.50;;;;;;;;;;5115559;28;20451;-74
2020/12/03 06:51:15;;;;;;;49.30;24.70;;;;;;;;;;5131841;27;20522;-74
2020/12/03 06:54:15;;;;;;;48.90;26.63;;;;;;;;;;5114898;28;20519;-74
2020/12/03 06:56:59;;;;;;;41.67;23.67;;;;;;;;;;5114518;28;20479;-74
2020/12/03 06:59:36;;;;;;;48.00;26.13;;;;;;;;;;5114627;28;20500;-74
2020/12/03 07:02:16;;;;;;;41.70;23.33;;;;;;;;;;5114099;28;20546;-74
2020/12/03 07:05:16;;;;;;;51.20;27.07;;;;;;;;;;5115091;28;20488;-74
2020/12/03 07:07:57;;;;;;;42.20;27.10;;;;;;;;;;5093943;28;20444;-74
2020/12/03 07:10:42;;;;;;;45.00;24.33;;;;;;;;;;5109092;28;20435;-74
2020/12/03 07:13:27;;;;;;;42.57;24.57;;;;;;;;;;5094250;28;20450;-72
2020/12/03 07:16:12;;;;;;;51.10;26.67;;;;;;;;;;5094006;28;20487;-73
2020/12/03 07:19:04;;;;;;;48.70;26.73;;;;;;;;;;5114696;28;20443;-73
2020/12/03 07:21:47;;;;;;;36.73;21.43;;;;;;;;;;5111469;28;20447;-75
2020/12/03 07:24:17;;;;;;;40.67;24.70;;;;;;;;;;5116533;28;20450;-75
2020/12/03 07:27:04;;;;;;;47.20;26.90;;;;;;;;;;5117643;28;20451;-75
2020/12/03 07:29:37;;;;;;;48.23;25.07;;;;;;;;;;5117032;28;20469;-74
2020/12/03 07:32:23;;;;;;;53.70;29.87;;;;;;;;;;5115955;28;20451;-75
2020/12/03 07:34:56;;;;;;;42.00;25.57;;;;;;;;;;5117483;28;20447;-74
2020/12/03 07:37:34;;;;;;;43.60;27.57;;;;;;;;;;5119158;28;20481;-74
2020/12/03 07:40:01;;;;;;;50.83;27.97;;;;;;;;;;5118291;28;20969;-74
2020/12/03 07:42:29;;;;;;;50.87;28.00;;;;;;;;;;5119635;28;20951;-74
2020/12/03 07:44:57;;;;;;;39.67;22.93;;;;;;;;;;5120824;28;20519;-74
2020/12/03 07:47:31;;;;;;;42.40;26.50;;;;;;;;;;5103625;28;20516;-75
2020/12/03 07:50:06;;;;;;;43.80;25.33;;;;;;;;;;5119883;28;20454;-74
2020/12/03 07:52:35;;;;;;;40.73;22.73;;;;;;;;;;5124547;27;20451;-74
2020/12/03 07:55:25;;;;;;;54.13;28.87;;;;;;;;;;5117912;28;20478;-74
2020/12/03 07:57:57;;;;;;;43.03;25.87;;;;;;;;;;5110347;28;20449;-74
2020/12/03 08:00:49;;;;;;;44.07;25.57;;;;;;;;;;5110171;28;20828;-74
2020/12/03 08:03:34;;;;;;;39.07;24.20;;;;;;;;;;5116426;28;20447;-75
2020/12/03 08:06:15;;;;;;;46.40;26.60;;;;;;;;;;5109015;28;20485;-75
2020/12/03 08:08:50;;;;;;;47.70;25.93;;;;;;;;;;5118926;28;20486;-75
2020/12/03 08:11:42;;;;;;;45.10;27.83;;;;;;;;;;5097671;28;20736;-74
2020/12/03 08:14:28;;;;;;;44.00;27.07;;;;;;;;;;5097933;28;20846;-73
2020/12/03 08:16:57;;;;;;;44.00;25.37;;;;;;;;;;5098263;28;20578;-73
2020/12/03 08:19:27;;;;;;;45.30;25.47;;;;;;;;;;5097826;28;20879;-74
2020/12/03 08:22:10;;;;;;;46.33;26.00;;;;;;;;;;5098772;28;20787;-74
2020/12/03 08:24:41;;;;;;;42.37;25.10;;;;;;;;;;5097887;28;20448;-74
2020/12/03 08:27:24;;;;;;;43.07;25.00;;;;;;;;;;5098489;28;20443;-75
2020/12/03 08:29:57;;;;;;;41.77;23.90;;;;;;;;;;5102888;28;20531;-74
2020/12/03 08:32:24;;;;;;;40.30;24.75;;;;;;;;;;5098803;28;20463;-75
2020/12/03 08:34:53;;;;;;;41.87;24.13;;;;;;;;;;5117624;28;20296;-75
2020/12/03 08:40:09;;;;;;;42.63;25.97;;;;;;;;;;5104960;28;20870;-74
2020/12/03 08:42:42;;;;;;;45.30;25.40;;;;;;;;;;5109953;28;20871;-75
2020/12/03 08:45:26;;;;;;;37.73;21.93;;;;;;;;;;5117787;28;20439;-75
2020/12/03 08:47:57;;;;;;;47.60;25.57;;;;;;;;;;5118187;28;20519;-74
2020/12/03 08:50:29;;;;;;;41.80;24.37;;;;;;;;;;5118229;28;20461;-74
2020/12/03 08:52:56;;;;;;;48.77;24.10;;;;;;;;;;5118197;28;20581;-74
2020/12/03 08:55:23;;;;;;;36.70;25.37;;;;;;;;;;5098613;28;20918;-75
2020/12/03 08:57:57;;;;;;;40.90;23.70;;;;;;;;;;5100118;28;20470;-76
2020/12/03 09:00:27;;;;;;;40.20;24.60;;;;;;;;;;5118114;28;20442;-74
2020/12/03 09:02:55;;;;;;;41.10;24.93;;;;;;;;;;5117395;28;20459;-74
2020/12/03 09:05:23;;;;;;;43.90;25.67;;;;;;;;;;5118399;28;20948;-74
2020/12/03 09:07:57;;;;;;;46.57;24.60;;;;;;;;;;5126418;27;21038;-75
2020/12/03 09:10:27;;;;;;;40.57;23.60;;;;;;;;;;5138704;27;20450;-73
2020/12/03 09:13:00;;;;;;;37.30;22.60;;;;;;;;;;5123673;27;20890;-74
2020/12/03 09:15:37;;;;;;;37.43;23.23;;;;;;;;;;5115251;28;20531;-73
2020/12/03 09:18:07;;;;;;;38.07;23.13;;;;;;;;;;5121090;27;20462;-74
2020/12/03 09:21:11;;;;;;;;;;;;;;;;;;;;;
2020/12/03 09:23:47;;;;;;;38.97;22.53;;;;;;;;;;5104153;28;20710;-74
2020/12/03 09:26:19;;;;;;;36.77;23.37;;;;;;;;;;5097296;28;20499;-75
2020/12/03 09:28:48;;;;;;;44.53;23.70;;;;;;;;;;5100826;28;20463;-74
2020/12/03 09:31:16;;;;;;;40.63;23.77;;;;;;;;;;5115425;28;20546;-73
2020/12/03 09:33:55;;;;;;;33.80;21.80;;;;;;;;;;5096886;28;20456;-75
2020/12/03 09:39:33;;;;;;;;;;;;;;;;;;;;;
2020/12/03 09:42:05;;;;;;;38.03;22.37;;;;;;;;;;5104099;28;20455;-75
2020/12/03 09:44:36;;;;;;;38.00;22.17;;;;;;;;;;5116637;28;20443;-75
2020/12/03 09:47:08;;;;;;;36.53;22.47;;;;;;;;;;5116823;28;20700;-75
2020/12/03 09:49:47;;;;;;;39.77;22.90;;;;;;;;;;5116786;28;20871;-76
2020/12/03 09:52:17;;;;;;;34.40;21.43;;;;;;;;;;5110261;28;20719;-75
2020/12/03 09:54:50;;;;;;;40.43;23.63;;;;;;;;;;5116060;28;20447;-75
2020/12/03 09:57:33;;;;;;;38.83;23.40;;;;;;;;;;5116970;28;20842;-74
2020/12/03 10:00:02;;;;;;;38.23;24.40;;;;;;;;;;5102166;28;20479;-75
2020/12/03 10:02:40;;;;;;;42.57;23.33;;;;;;;;;;5116909;28;20519;-75
2020/12/03 10:05:22;;;;;;;39.80;24.50;;;;;;;;;;5116621;28;20438;-75
2020/12/03 10:08:09;;;;;;;41.67;23.93;;;;;;;;;;5108284;28;20544;-74
2020/12/03 10:11:09;;;;;;;38.37;23.07;;;;;;;;;;5108038;27;20740;-74
2020/12/03 10:14:20;;;;;;;38.33;23.47;;;;;;;;;;5118137;27;20508;-74
2020/12/03 10:16:58;;;;;;;34.20;21.67;;;;;;;;;;5119526;28;20487;-74
2020/12/03 10:19:55;;;;;;;35.07;19.93;;;;;;;;;;5101705;28;20468;-74
2020/12/03 10:22:36;;;;;;;40.20;23.30;;;;;;;;;;5097909;28;20459;-74
2020/12/03 10:25:12;;;;;;;33.60;21.50;;;;;;;;;;5109843;28;20474;-74
2020/12/03 10:27:56;;;;;;;36.80;21.40;;;;;;;;;;5095602;28;20454;-74
2020/12/03 10:30:47;;;;;;;35.60;22.60;;;;;;;;;;5096639;28;20869;-74
2020/12/03 10:33:17;;;;;;;38.37;24.40;;;;;;;;;;5095098;28;20437;-74
2020/12/03 10:35:45;;;;;;;35.93;20.43;;;;;;;;;;5095049;28;20895;-73
2020/12/03 10:38:18;;;;;;;39.93;23.93;;;;;;;;;;5096002;28;20444;-74
2020/12/03 10:40:45;;;;;;;33.87;20.53;;;;;;;;;;5095944;28;20464;-74
2020/12/03 10:43:25;;;;;;;37.57;22.30;;;;;;;;;;5110280;28;20463;-74
2020/12/03 10:45:55;;;;;;;35.67;21.33;;;;;;;;;;5113884;28;20461;-75
2020/12/03 10:48:41;;;;;;;33.87;21.00;;;;;;;;;;5115306;28;20456;-74
2020/12/03 10:51:13;;;;;;;32.07;19.90;;;;;;;;;;5107299;28;20474;-76
2020/12/03 10:53:53;;;;;;;32.20;19.40;;;;;;;;;;5112621;28;20459;-77
2020/12/03 10:56:26;;;;;;;37.20;22.27;;;;;;;;;;5107340;28;20487;-76
2020/12/03 10:59:19;;;;;;;34.43;20.27;;;;;;;;;;5105338;28;20486;-75
2020/12/03 11:01:54;;;;;;;35.27;21.33;;;;;;;;;;5107581;28;21065;-75
2020/12/03 11:04:38;;;;;;;32.83;20.70;;;;;;;;;;5094561;28;20849;-75
2020/12/03 11:07:09;;;;;;;29.73;19.13;;;;;;;;;;5097426;28;20546;-75
2020/12/03 11:12:39;;;;;;;31.47;20.00;;;;;;;;;;5104290;28;21030;-76
2020/12/03 11:15:11;;;;;;;33.70;19.40;;;;;;;;;;5114704;28;20537;-75
2020/12/03 11:17:45;;;;;;;38.47;23.20;;;;;;;;;;5115255;28;20538;-75
2020/12/03 11:20:22;;;;;;;34.13;19.53;;;;;;;;;;5116853;28;20431;-75
2020/12/03 11:23:02;;;;;;;32.50;19.70;;;;;;;;;;5116949;27;20465;-74
2020/12/03 11:25:52;;;;;;;;;;;;;;;;;;;;;
2020/12/03 11:28:40;;;;;;;29.17;20.60;;;;;;;;;;5116763;28;20682;-75
2020/12/03 11:31:35;;;;;;;35.30;19.60;;;;;;;;;;5116664;28;20459;-75
2020/12/03 11:34:11;;;;;;;27.83;15.30;;;;;;;;;;5115638;28;20451;-74
2020/12/03 11:36:47;;;;;;;28.67;17.97;;;;;;;;;;5114984;28;20946;-75
2020/12/03 11:39:24;;;;;;;35.70;20.03;;;;;;;;;;5117319;28;20955;-74
2020/12/03 11:42:27;;;;;;;33.90;18.10;;;;;;;;;;5116809;28;20958;-74
2020/12/03 11:48:18;;;;;;;29.73;19.37;;;;;;;;;;5110426;28;20473;-74
2020/12/03 11:53:56;;;;;;;31.00;18.47;;;;;;;;;;5097954;28;20506;-74
2020/12/03 11:56:25;;;;;;;36.67;18.23;;;;;;;;;;5125555;28;21076;-76
2020/12/03 11:58:55;;;;;;;30.63;19.73;;;;;;;;;;5116207;28;20470;-76
2020/12/03 12:01:23;;;;;;;29.87;18.97;;;;;;;;;;5125661;27;20476;-76
2020/12/03 12:03:57;;;;;;;31.77;19.63;;;;;;;;;;5115559;28;20945;-76
2020/12/03 12:09:15;;;;;;;33.17;21.20;;;;;;;;;;5046927;28;20462;-75
2020/12/03 12:11:46;;;;;;;35.53;20.30;;;;;;;;;;5107686;28;20786;-75
2020/12/03 12:14:29;;;;;;;29.13;18.10;;;;;;;;;;5120744;28;20562;-75
2020/12/03 12:16:56;;;;;;;32.07;19.73;;;;;;;;;;5118526;28;20474;-75
2020/12/03 12:20:06;;;;;;;;;;;;;;;;;;;;;
2020/12/03 12:22:34;;;;;;;28.10;18.87;;;;;;;;;;5035077;28;20466;-75
2020/12/03 12:25:12;;;;;;;;;;;;;;;;;;;;;
2020/12/03 12:27:40;;;;;;;33.27;18.50;;;;;;;;;;5110984;28;20443;-74
2020/12/03 12:30:15;;;;;;;33.27;20.13;;;;;;;;;;5103014;28;20574;-76
2020/12/03 12:35:24;;;;;;;32.10;17.70;;;;;;;;;;5054730;28;20460;-74
2020/12/03 12:37:52;;;;;;;30.60;18.40;;;;;;;;;;5054068;28;20445;-75
2020/12/03 12:40:20;;;;;;;31.30;20.10;;;;;;;;;;5082179;27;20459;-74
2020/12/03 12:42:50;;;;;;;29.07;18.60;;;;;;;;;;5116247;28;20455;-74
2020/12/03 12:45:18;;;;;;;28.23;17.97;;;;;;;;;;5100370;28;21531;-74
2020/12/03 12:47:47;;;;;;;36.67;20.93;;;;;;;;;;5114254;28;20444;-74
2020/12/03 12:50:15;;;;;;;30.63;17.00;;;;;;;;;;5102934;28;20747;-73
2020/12/03 12:52:43;;;;;;;31.50;18.10;;;;;;;;;;5107773;28;20478;-73
2020/12/03 12:55:10;;;;;;;32.80;19.67;;;;;;;;;;5117694;28;20517;-73
2020/12/03 12:57:39;;;;;;;31.73;18.30;;;;;;;;;;5117335;28;20543;-74
2020/12/03 13:00:06;;;;;;;29.27;18.13;;;;;;;;;;5118325;28;20443;-75
2020/12/03 13:02:34;;;;;;;34.20;18.60;;;;;;;;;;5117305;28;20466;-74
2020/12/03 13:05:01;;;;;;;35.70;18.53;;;;;;;;;;5114923;28;20505;-73
2020/12/03 13:07:28;;;;;;;32.40;17.87;;;;;;;;;;5116447;28;20528;-74
2020/12/03 13:09:56;;;;;;;35.80;19.93;;;;;;;;;;5116378;28;20516;-74
2020/12/03 13:12:24;;;;;;;32.33;20.70;;;;;;;;;;5116969;28;20459;-75
2020/12/03 13:14:55;;;;;;;30.10;19.33;;;;;;;;;;5117526;28;20486;-74
2020/12/03 13:17:26;;;;;;;32.67;19.70;;;;;;;;;;5116989;28;20574;-75
2020/12/03 13:19:53;;;;;;;31.60;18.47;;;;;;;;;;5117281;28;20483;-74
2020/12/03 13:22:23;;;;;;;27.90;17.70;;;;;;;;;;5117745;27;20737;-75
2020/12/03 13:24:50;;;;;;;32.67;17.97;;;;;;;;;;5117304;28;21032;-76
2020/12/03 13:27:22;;;;;;;31.47;18.07;;;;;;;;;;5117980;28;20448;-74
2020/12/03 13:29:49;;;;;;;30.80;17.00;;;;;;;;;;5116655;28;20910;-74
2020/12/03 13:32:26;;;;;;;25.10;14.83;;;;;;;;;;5116078;28;20459;-74
2020/12/03 13:34:57;;;;;;;30.47;17.80;;;;;;;;;;5117323;27;20478;-76
2020/12/03 13:37:25;;;;;;;34.73;18.50;;;;;;;;;;5116444;28;21056;-75
2020/12/03 13:40:00;;;;;;;30.47;18.83;;;;;;;;;;5117298;28;20451;-78
2020/12/03 13:42:28;;;;;;;32.60;18.77;;;;;;;;;;5115906;28;20473;-75
2020/12/03 13:44:56;;;;;;;32.50;18.60;;;;;;;;;;5116951;28;20524;-75
2020/12/03 13:47:37;;;;;;;32.13;19.20;;;;;;;;;;5118928;27;20435;-75
2020/12/03 13:50:10;;;;;;;32.70;17.43;;;;;;;;;;5126564;27;20469;-74
2020/12/03 13:52:50;;;;;;;26.80;16.70;;;;;;;;;;5128029;27;20520;-75
2020/12/03 13:55:27;;;;;;;33.77;18.47;;;;;;;;;;5117493;28;20879;-76
2020/12/03 13:57:54;;;;;;;29.03;17.97;;;;;;;;;;5116432;28;20489;-75
2020/12/03 14:00:47;;;;;;;30.20;18.77;;;;;;;;;;5123316;28;20443;-78
2020/12/03 14:06:18;;;;;;;29.87;16.63;;;;;;;;;;5109402;28;20455;-75
2020/12/03 14:09:01;;;;;;;30.83;18.13;;;;;;;;;;5115701;28;20812;-76
2020/12/03 14:11:32;;;;;;;30.67;18.23;;;;;;;;;;5116590;28;20928;-76
2020/12/03 14:14:05;;;;;;;30.33;16.80;;;;;;;;;;5104650;28;20555;-76
2020/12/03 14:16:33;;;;;;;25.63;15.40;;;;;;;;;;5096713;28;20568;-76
2020/12/03 14:19:08;;;;;;;26.47;17.07;;;;;;;;;;5097858;28;20452;-76
2020/12/03 14:21:39;;;;;;;55.70;28.20;;;;;;;;;;5111251;28;20462;-76
2020/12/03 14:24:19;;;;;;;34.33;20.23;;;;;;;;;;5117582;28;20524;-76
2020/12/03 14:26:56;;;;;;;35.47;19.53;;;;;;;;;;5116553;28;20530;-76
2020/12/03 14:29:24;;;;;;;31.13;19.60;;;;;;;;;;5118026;27;20458;-75
2020/12/03 14:31:55;;;;;;;29.27;17.97;;;;;;;;;;5116268;28;20999;-74
2020/12/03 14:37:37;;;;;;;30.20;17.33;;;;;;;;;;5106751;27;20486;-75
2020/12/03 14:40:06;;;;;;;31.03;16.93;;;;;;;;;;5109683;28;20459;-74
2020/12/03 14:42:43;;;;;;;29.93;16.87;;;;;;;;;;5111099;28;20833;-75
2020/12/03 14:45:23;;;;;;;;;;;;;;;;;;;;;
2020/12/03 14:47:53;;;;;;;32.43;18.47;;;;;;;;;;5116317;28;20439;-76
2020/12/03 14:50:25;;;;;;;34.53;17.93;;;;;;;;;;5117710;28;20490;-75
2020/12/03 14:52:55;;;;;;;32.43;17.80;;;;;;;;;;5118494;28;20463;-76
2020/12/03 14:55:27;;;;;;;29.00;17.27;;;;;;;;;;5096114;28;20590;-76
2020/12/03 14:58:10;;;;;;;36.23;18.67;;;;;;;;;;5095583;28;20480;-75
2020/12/03 15:00:43;;;;;;;32.73;18.17;;;;;;;;;;5092235;28;20583;-76
2020/12/03 15:03:31;;;;;;;30.10;16.67;;;;;;;;;;5095346;28;20503;-75
2020/12/03 15:06:00;;;;;;;32.43;17.83;;;;;;;;;;5095741;28;20814;-74
2020/12/03 15:08:27;;;;;;;28.00;15.87;;;;;;;;;;5108369;28;20453;-75
2020/12/03 15:11:03;;;;;;;35.83;18.10;;;;;;;;;;5114810;28;20470;-76
2020/12/03 15:13:30;;;;;;;34.90;18.80;;;;;;;;;;5116318;28;20455;-75
2020/12/03 15:16:28;;;;;;;28.80;18.30;;;;;;;;;;5115160;28;20489;-75
2020/12/03 15:19:15;;;;;;;35.20;17.70;;;;;;;;;;5093315;28;20489;-74
2020/12/03 15:21:45;;;;;;;35.13;20.20;;;;;;;;;;5122240;28;20746;-76
2020/12/03 15:24:27;;;;;;;30.73;17.73;;;;;;;;;;5122849;28;20480;-75
2020/12/03 15:27:09;;;;;;;34.13;18.20;;;;;;;;;;5112141;28;20447;-75
2020/12/03 15:29:37;;;;;;;29.90;17.07;;;;;;;;;;5112371;28;20546;-76